createdAt,value
2022-10-17T00:00:48.398Z,101397.84
2022-10-17T00:03:17.855Z,101391.41
2022-10-17T00:05:49.257Z,101395.81
2022-10-17T00:08:20.114Z,101394.69
2022-10-17T00:10:58.286Z,101399.63
2022-10-17T00:13:30.521Z,101409.63
2022-10-17T00:16:00.215Z,101402.53
2022-10-17T00:18:30.013Z,101407.84
2022-10-17T00:20:59.393Z,101400.44
2022-10-17T00:23:30.456Z,101394.69
2022-10-17T00:26:03.321Z,101389.75
2022-10-17T00:28:35.616Z,101386.28
2022-10-17T00:31:07.609Z,101393.56
2022-10-17T00:33:39.220Z,101406.09
2022-10-17T00:36:10.565Z,101406.59
2022-10-17T00:38:40.187Z,101408.53
2022-10-17T00:41:14.606Z,101399.91
2022-10-17T00:44:00.426Z,101409.59
2022-10-17T00:46:31.432Z,101420.94
2022-10-17T00:49:02.205Z,101422.50
2022-10-17T00:51:36.480Z,101427.03
2022-10-17T00:54:06.749Z,101424.97
2022-10-17T00:56:36.316Z,101430.13
2022-10-17T00:59:08.354Z,101416.34
2022-10-17T01:01:37.841Z,101417.31
2022-10-17T01:04:07.643Z,101419.69
2022-10-17T01:06:37.060Z,101425.63
2022-10-17T01:09:07.068Z,101437.41
2022-10-17T01:11:41.436Z,101444.81
2022-10-17T01:14:23.718Z,101452.22
2022-10-17T01:16:56.864Z,101449.50
2022-10-17T01:19:38.886Z,101451.03
2022-10-17T01:22:12.754Z,101463.22
2022-10-17T01:25:10.681Z,101451.28
2022-10-17T01:27:53.808Z,101440.69
2022-10-17T01:30:52.868Z,101436.25
2022-10-17T01:33:33.509Z,101443.09
2022-10-17T01:36:06.933Z,101440.28
2022-10-17T01:38:38.614Z,101443.69
2022-10-17T01:41:10.607Z,101443.00
2022-10-17T01:43:43.110Z,101449.16
2022-10-17T01:46:15.685Z,101449.16
2022-10-17T01:48:48.797Z,101454.78
2022-10-17T01:51:21.562Z,101444.97
2022-10-17T01:53:55.695Z,101437.72
2022-10-17T01:56:27.905Z,101437.72
2022-10-17T01:59:00.477Z,101440.59
2022-10-17T02:01:31.111Z,101447.13
2022-10-17T02:04:04.201Z,101444.47
2022-10-17T02:06:37.937Z,101447.63
2022-10-17T02:09:19.130Z,101446.81
2022-10-17T02:12:06.533Z,101440.59
2022-10-17T02:14:44.289Z,101438.91
2022-10-17T02:17:17.945Z,101440.59
2022-10-17T02:19:58.106Z,101446.25
2022-10-17T02:22:33.788Z,101442.56
2022-10-17T02:25:06.494Z,101441.34
2022-10-17T02:27:39.737Z,101445.13
2022-10-17T02:30:12.233Z,101442.38
2022-10-17T02:32:47.998Z,101442.88
2022-10-17T02:35:23.713Z,101441.56
2022-10-17T02:37:54.043Z,101447.75
2022-10-17T02:40:25.455Z,101442.19
2022-10-17T02:42:55.861Z,101444.22
2022-10-17T02:45:26.741Z,101436.41
2022-10-17T02:47:59.058Z,101442.38
2022-10-17T02:50:38.786Z,101432.34
2022-10-17T02:53:10.126Z,101424.59
2022-10-17T02:55:43.753Z,101428.47
2022-10-17T02:58:16.418Z,101432.16
2022-10-17T03:00:46.594Z,101422.34
2022-10-17T03:03:24.462Z,101417.88
2022-10-17T03:05:56.909Z,101424.63
2022-10-17T03:08:26.464Z,101423.75
2022-10-17T03:10:55.850Z,101422.44
2022-10-17T03:13:25.286Z,101418.47
2022-10-17T03:15:54.656Z,101425.47
2022-10-17T03:18:24.050Z,101437.91
2022-10-17T03:20:56.036Z,101445.22
2022-10-17T03:23:25.440Z,101451.19
2022-10-17T03:25:54.828Z,101455.41
2022-10-17T03:28:24.284Z,101463.66
2022-10-17T03:30:53.688Z,101478.66
2022-10-17T03:33:23.092Z,101478.59
2022-10-17T03:35:52.537Z,101481.41
2022-10-17T03:38:24.497Z,101483.16
2022-10-17T03:40:57.860Z,101483.47
2022-10-17T03:43:27.234Z,101481.53
2022-10-17T03:45:56.594Z,101486.41
2022-10-17T03:48:26.052Z,101489.81
2022-10-17T03:51:01.670Z,101485.91
2022-10-17T03:53:33.710Z,101484.94
2022-10-17T03:56:12.400Z,101477.09
2022-10-17T03:58:41.818Z,101490.84
2022-10-17T04:01:12.807Z,101487.31
2022-10-17T04:03:42.613Z,101477.78
2022-10-17T04:06:14.267Z,101478.34
2022-10-17T04:08:46.238Z,101485.16
2022-10-17T04:11:17.929Z,101483.59
2022-10-17T04:13:47.867Z,101484.34
2022-10-17T04:16:19.181Z,101489.66
2022-10-17T04:18:48.609Z,101478.59
2022-10-17T04:21:18.718Z,101473.13
2022-10-17T04:23:52.749Z,101474.00
2022-10-17T04:26:22.162Z,101466.75
2022-10-17T04:28:51.899Z,101475.16
2022-10-17T04:31:21.534Z,101469.22
2022-10-17T04:33:51.994Z,101477.19
2022-10-17T04:36:23.397Z,101474.28
2022-10-17T04:38:55.361Z,101467.09
2022-10-17T04:41:25.910Z,101468.00
2022-10-17T04:43:55.297Z,101463.00
2022-10-17T04:46:24.957Z,101453.75
2022-10-17T04:48:54.349Z,101451.78
2022-10-17T04:51:26.520Z,101450.81
2022-10-17T04:53:58.742Z,101448.44
2022-10-17T04:56:28.333Z,101444.84
2022-10-17T04:58:57.824Z,101443.41
2022-10-17T05:01:27.317Z,101439.41
2022-10-17T05:03:56.912Z,101433.19
2022-10-17T05:06:28.204Z,101430.53
2022-10-17T05:09:00.674Z,101437.63
2022-10-17T05:11:31.294Z,101434.41
2022-10-17T05:14:02.553Z,101427.59
2022-10-17T05:16:32.610Z,101423.03
2022-10-17T05:19:02.428Z,101414.16
2022-10-17T05:24:24.970Z,101407.38
2022-10-17T05:26:54.385Z,101403.63
2022-10-17T05:29:24.066Z,101400.72
2022-10-17T05:31:53.492Z,101408.22
2022-10-17T05:34:23.032Z,101398.06
2022-10-17T05:36:52.416Z,101400.56
2022-10-17T05:39:23.369Z,101399.97
2022-10-17T05:41:55.349Z,101389.88
2022-10-17T05:44:24.724Z,101392.31
2022-10-17T05:46:54.247Z,101393.94
2022-10-17T05:49:33.841Z,101396.44
2022-10-17T05:52:13.014Z,101387.72
2022-10-17T05:54:42.383Z,101385.22
2022-10-17T05:57:14.386Z,101378.63
2022-10-17T05:59:43.807Z,101373.53
2022-10-17T06:02:14.320Z,101376.06
2022-10-17T06:04:46.058Z,101370.72
2022-10-17T06:07:15.898Z,101374.66
2022-10-17T06:12:18.343Z,101379.91
2022-10-17T06:14:47.900Z,101381.06
2022-10-17T06:17:17.306Z,101385.88
2022-10-17T06:19:47.687Z,101384.94
2022-10-17T06:22:17.317Z,101375.06
2022-10-17T06:24:46.730Z,101377.31
2022-10-17T06:27:18.740Z,101375.03
2022-10-17T06:29:48.421Z,101376.38
2022-10-17T06:32:17.855Z,101371.25
2022-10-17T06:34:47.263Z,101373.78
2022-10-17T06:37:16.662Z,101375.50
2022-10-17T06:39:46.033Z,101368.41
2022-10-17T06:42:18.022Z,101371.81
2022-10-17T06:44:47.422Z,101376.97
2022-10-17T06:47:19.934Z,101377.09
2022-10-17T06:49:49.882Z,101379.34
2022-10-17T06:52:19.822Z,101378.88
2022-10-17T06:54:49.197Z,101384.13
2022-10-17T06:57:21.193Z,101383.69
2022-10-17T06:59:50.568Z,101398.53
2022-10-17T07:02:20.514Z,101390.09
2022-10-17T07:04:49.905Z,101386.13
2022-10-17T07:07:19.288Z,101397.03
2022-10-17T07:09:48.657Z,101393.63
2022-10-17T07:12:18.038Z,101392.75
2022-10-17T07:14:50.513Z,101396.19
2022-10-17T07:17:20.018Z,101407.38
2022-10-17T07:19:49.393Z,101414.75
2022-10-17T07:22:18.784Z,101425.09
2022-10-17T07:27:37.478Z,101438.47
2022-10-17T07:30:11.420Z,101434.06
2022-10-17T07:32:40.834Z,101426.94
2022-10-17T07:35:11.158Z,101425.41
2022-10-17T07:37:41.017Z,101413.72
2022-10-17T07:40:13.455Z,101432.16
2022-10-17T07:42:42.842Z,101437.47
2022-10-17T07:45:15.717Z,101437.88
2022-10-17T07:47:45.350Z,101443.19
2022-10-17T07:50:14.829Z,101436.63
2022-10-17T07:52:45.317Z,101440.13
2022-10-17T07:55:14.702Z,101457.13
2022-10-17T07:57:44.108Z,101462.66
2022-10-17T08:00:16.666Z,101464.88
2022-10-17T08:02:46.039Z,101457.41
2022-10-17T08:05:15.458Z,101457.75
2022-10-17T08:07:44.854Z,101459.88
2022-10-17T08:10:15.294Z,101480.03
2022-10-17T08:12:44.781Z,101466.50
2022-10-17T08:15:16.758Z,101459.78
2022-10-17T08:17:46.142Z,101458.28
2022-10-17T08:20:15.578Z,101459.31
2022-10-17T08:22:44.978Z,101466.56
2022-10-17T08:25:14.378Z,101459.88
2022-10-17T08:27:43.737Z,101454.09
2022-10-17T08:30:16.705Z,101445.00
2022-10-17T08:32:46.542Z,101433.25
2022-10-17T08:35:16.324Z,101434.44
2022-10-17T08:37:45.742Z,101439.28
2022-10-17T08:40:20.778Z,101440.28
2022-10-17T08:43:03.929Z,101448.22
2022-10-17T08:45:39.002Z,101442.31
2022-10-17T08:48:12.501Z,101437.38
2022-10-17T08:50:45.722Z,101442.00
2022-10-17T08:53:19.805Z,101447.38
2022-10-17T08:55:50.607Z,101440.72
2022-10-17T08:58:23.719Z,101449.56
2022-10-17T09:01:01.726Z,101446.13
2022-10-17T09:03:41.467Z,101462.94
2022-10-17T09:06:20.731Z,101458.94
2022-10-17T09:08:59.403Z,101460.69
2022-10-17T09:11:41.887Z,101463.63
2022-10-17T09:14:21.686Z,101464.75
2022-10-17T09:17:07.317Z,101476.13
2022-10-17T09:19:38.292Z,101474.63
2022-10-17T09:22:11.832Z,101468.59
2022-10-17T09:24:44.520Z,101466.25
2022-10-17T09:27:22.734Z,101468.16
2022-10-17T09:29:55.405Z,101464.09
2022-10-17T09:32:29.025Z,101476.38
2022-10-17T09:34:58.944Z,101486.06
2022-10-17T09:37:33.702Z,101492.16
2022-10-17T09:40:03.183Z,101493.94
2022-10-17T09:42:33.334Z,101494.03
2022-10-17T09:45:18.587Z,101482.03
2022-10-17T09:47:58.440Z,101478.81
2022-10-17T09:50:33.477Z,101477.56
2022-10-17T09:53:08.543Z,101479.41
2022-10-17T09:55:42.399Z,101488.44
2022-10-17T09:58:13.024Z,101485.94
2022-10-17T10:00:44.321Z,101483.69
2022-10-17T10:03:18.841Z,101483.94
2022-10-17T10:06:02.791Z,101483.25
2022-10-17T10:08:34.472Z,101487.81
2022-10-17T10:11:05.523Z,101482.78
2022-10-17T10:13:36.066Z,101490.78
2022-10-17T10:16:19.582Z,101480.56
2022-10-17T10:18:52.253Z,101487.72
2022-10-17T10:21:22.735Z,101487.09
2022-10-17T10:24:08.462Z,101496.72
2022-10-17T10:26:41.817Z,101500.38
2022-10-17T10:29:25.688Z,101510.06
2022-10-17T10:31:55.730Z,101512.88
2022-10-17T10:34:29.611Z,101512.25
2022-10-17T10:37:04.617Z,101519.47
2022-10-17T10:39:39.811Z,101512.75
2022-10-17T10:42:12.190Z,101510.41
2022-10-17T10:44:42.542Z,101505.34
2022-10-17T10:47:24.313Z,101507.34
2022-10-17T10:50:19.936Z,101513.47
2022-10-17T10:52:53.821Z,101515.44
2022-10-17T10:55:26.945Z,101514.63
2022-10-17T10:57:59.828Z,101513.78
2022-10-17T11:00:30.858Z,101514.63
2022-10-17T11:03:05.667Z,101519.06
2022-10-17T11:05:47.750Z,101525.97
2022-10-17T11:08:24.349Z,101532.94
2022-10-17T11:11:13.706Z,101536.41
2022-10-17T11:13:47.784Z,101531.19
2022-10-17T11:16:26.150Z,101525.13
2022-10-17T11:18:58.474Z,101529.44
2022-10-17T11:21:38.276Z,101522.50
2022-10-17T11:24:15.579Z,101529.59
2022-10-17T11:26:49.517Z,101534.91
2022-10-17T11:29:19.026Z,101531.47
2022-10-17T11:31:53.615Z,101537.72
2022-10-17T11:34:25.692Z,101541.34
2022-10-17T11:37:00.747Z,101536.25
2022-10-17T11:39:33.849Z,101543.28
2022-10-17T11:42:06.900Z,101535.53
2022-10-17T11:44:39.006Z,101524.25
2022-10-17T11:47:25.598Z,101519.91
2022-10-17T11:51:59.781Z,101516.53
2022-10-17T11:52:56.954Z,101522.72
2022-10-17T11:55:28.378Z,101515.78
2022-10-17T11:58:04.932Z,101514.84
2022-10-17T12:00:47.514Z,101523.59
2022-10-17T12:03:28.631Z,101525.22
2022-10-17T12:06:02.483Z,101536.41
2022-10-17T12:08:39.264Z,101547.59
2022-10-17T12:11:14.209Z,101565.03
2022-10-17T12:13:56.355Z,101595.31
2022-10-17T12:16:48.300Z,101586.16
2022-10-17T12:19:35.917Z,101545.72
2022-10-17T12:22:21.483Z,101508.50
2022-10-17T12:25:01.951Z,101495.28
2022-10-17T12:27:48.516Z,101445.19
2022-10-17T12:30:21.238Z,101424.53
2022-10-17T12:33:22.303Z,101381.31
2022-10-17T12:35:52.916Z,101360.22
2022-10-17T12:38:27.993Z,101306.59
2022-10-17T12:41:07.977Z,101320.31
2022-10-17T12:43:58.327Z,101341.03
2022-10-17T12:46:51.932Z,101350.50
2022-10-17T12:49:27.290Z,101363.44
2022-10-17T12:52:22.208Z,101340.81
2022-10-17T12:55:07.179Z,101288.84
2022-10-17T12:57:46.443Z,101224.63
2022-10-17T13:00:20.974Z,101052.94
2022-10-17T13:02:50.710Z,100987.91
2022-10-17T13:05:25.375Z,100991.34
2022-10-17T13:07:55.406Z,100995.69
2022-10-17T13:13:21.925Z,100960.94
2022-10-17T13:15:52.033Z,100953.16
2022-10-17T13:18:23.530Z,100934.91
2022-10-17T13:21:01.561Z,101096.00
2022-10-17T13:23:33.747Z,100834.03
2022-10-17T13:26:09.868Z,100763.78
2022-10-17T13:28:41.864Z,100715.22
2022-10-17T13:31:29.744Z,100737.53
2022-10-17T13:34:00.529Z,100749.56
2022-10-17T13:36:30.621Z,100718.25
2022-10-17T13:39:00.955Z,100722.53
2022-10-17T13:41:37.050Z,100713.84
2022-10-17T13:44:14.822Z,100707.72
2022-10-17T13:46:44.373Z,100728.47
2022-10-17T13:49:18.382Z,100739.72
2022-10-17T13:51:49.450Z,100736.28
2022-10-17T13:54:40.254Z,100730.19
2022-10-17T13:57:20.935Z,100735.38
2022-10-17T13:59:55.032Z,100734.53
2022-10-17T14:02:26.918Z,100738.88
2022-10-17T14:05:19.878Z,100738.88
2022-10-17T14:10:45.395Z,100721.63
2022-10-17T14:13:23.376Z,100700.81
2022-10-17T14:15:55.699Z,100682.63
2022-10-17T14:18:33.288Z,100653.13
2022-10-17T14:24:10.698Z,100628.00
2022-10-17T14:26:49.827Z,100621.94
2022-10-17T14:29:26.861Z,100621.94
2022-10-17T14:32:06.055Z,100607.28
2022-10-17T14:34:37.680Z,100596.88
2022-10-17T14:37:12.385Z,100598.59
2022-10-17T14:39:42.085Z,100599.47
2022-10-17T14:42:20.690Z,100596.00
2022-10-17T14:44:52.310Z,100599.47
2022-10-17T14:47:42.576Z,100592.53
2022-10-17T14:50:24.826Z,100596.06
2022-10-17T14:53:05.747Z,100591.69
2022-10-17T14:55:37.174Z,100588.25
2022-10-17T14:58:19.104Z,100584.78
2022-10-17T15:00:48.475Z,100583.88
2022-10-17T15:03:20.918Z,100583.88
2022-10-17T15:05:50.998Z,100583.88
2022-10-17T15:08:22.330Z,100582.19
2022-10-17T15:10:53.435Z,100582.19
2022-10-17T15:13:32.356Z,100579.53
2022-10-17T15:16:02.946Z,100581.28
2022-10-17T15:18:34.913Z,100586.50
2022-10-17T15:21:05.192Z,100585.63
2022-10-17T15:23:42.439Z,100584.75
2022-10-17T15:26:16.809Z,100590.84
2022-10-17T15:28:47.487Z,100597.75
2022-10-17T15:31:18.601Z,100617.69
2022-10-17T15:33:50.677Z,100612.47
2022-10-17T15:36:22.865Z,100622.03
2022-10-17T15:38:53.238Z,100628.97
2022-10-17T15:41:22.953Z,100628.09
2022-10-17T15:43:52.698Z,100622.88
2022-10-17T15:46:25.361Z,100633.25
2022-10-17T15:48:58.182Z,100641.94
2022-10-17T15:51:27.674Z,100653.13
2022-10-17T15:53:57.067Z,100898.34
2022-10-17T15:56:29.773Z,100910.47
2022-10-17T15:58:59.293Z,100927.75
2022-10-17T16:01:31.395Z,101338.53
2022-10-17T16:04:03.548Z,101346.25
2022-10-17T16:06:32.964Z,101352.38
2022-10-17T16:09:02.343Z,101350.56
2022-10-17T16:11:34.438Z,101343.59
2022-10-17T16:14:07.100Z,101350.44
2022-10-17T16:16:36.917Z,101346.94
2022-10-17T16:19:09.481Z,101353.03
2022-10-17T16:21:41.132Z,101361.50
2022-10-17T16:24:12.741Z,101371.03
2022-10-17T16:26:42.423Z,101375.38
2022-10-17T16:29:11.943Z,101371.03
2022-10-17T16:31:45.009Z,101377.94
2022-10-17T16:34:18.394Z,101378.78
2022-10-17T16:36:47.777Z,101384.81
2022-10-17T16:39:17.190Z,101394.28
2022-10-17T16:41:46.638Z,101390.72
2022-10-17T16:44:17.537Z,101393.31
2022-10-17T16:46:47.277Z,101387.16
2022-10-17T16:49:19.276Z,101398.44
2022-10-17T16:51:48.687Z,101404.47
2022-10-17T16:54:18.171Z,101415.66
2022-10-17T16:56:47.561Z,101414.75
2022-10-17T16:59:16.945Z,101416.44
2022-10-17T17:01:46.347Z,101423.38
2022-10-17T17:04:15.747Z,101428.47
2022-10-17T17:06:47.717Z,101438.84
2022-10-17T17:09:17.596Z,101443.25
2022-10-17T17:11:46.978Z,101446.66
2022-10-17T17:14:16.610Z,101443.19
2022-10-17T17:16:46.044Z,101447.41
2022-10-17T17:19:17.338Z,101452.63
2022-10-17T17:21:51.036Z,101457.81
2022-10-17T17:24:21.560Z,101465.53
2022-10-17T17:26:53.657Z,101464.63
2022-10-17T17:29:23.119Z,101472.41
2022-10-17T17:31:52.833Z,101467.97
2022-10-17T17:34:22.249Z,101479.28
2022-10-17T17:36:54.209Z,101481.06
2022-10-17T17:39:23.746Z,101491.34
2022-10-17T17:41:53.144Z,101489.53
2022-10-17T17:44:22.599Z,101493.00
2022-10-17T17:46:51.993Z,101498.19
2022-10-17T17:49:21.378Z,101499.84
2022-10-17T17:51:50.832Z,101506.81
2022-10-17T17:54:22.838Z,101507.56
2022-10-17T17:56:52.206Z,101515.34
2022-10-17T17:59:21.685Z,101520.47
2022-10-17T18:01:51.136Z,101528.28
2022-10-17T18:04:20.569Z,101527.38
2022-10-17T18:06:49.941Z,101545.53
2022-10-17T18:09:22.242Z,101644.25
2022-10-17T18:11:51.627Z,101645.03
2022-10-17T18:14:23.902Z,101643.34
2022-10-17T18:16:53.411Z,101639.09
2022-10-17T18:19:23.835Z,101643.44
2022-10-17T18:21:53.276Z,101653.06
2022-10-17T18:24:25.389Z,101640.97
2022-10-17T18:26:59.626Z,101650.69
2022-10-17T18:29:29.484Z,101654.22
2022-10-17T18:31:58.887Z,101657.75
2022-10-17T18:34:29.477Z,101661.31
2022-10-17T18:36:58.911Z,101665.00
2022-10-17T18:39:30.934Z,101676.06
2022-10-17T18:42:00.557Z,101685.38
2022-10-17T18:44:30.452Z,101694.84
2022-10-17T18:47:03.087Z,101703.75
2022-10-17T18:49:33.803Z,101705.94
2022-10-17T18:52:03.221Z,101710.00
2022-10-17T18:54:35.374Z,101721.53
2022-10-17T18:57:04.851Z,101727.22
2022-10-17T18:59:34.353Z,101727.88
2022-10-17T19:02:03.856Z,101723.31
2022-10-17T19:04:33.330Z,101720.00
2022-10-17T19:07:02.689Z,101728.97
2022-10-17T19:09:34.730Z,101736.56
2022-10-17T19:12:04.142Z,101739.84
2022-10-17T19:14:33.585Z,101743.72
2022-10-17T19:17:04.058Z,101749.78
2022-10-17T19:19:33.631Z,101894.16
2022-10-17T19:22:03.453Z,101721.22
2022-10-17T19:24:35.497Z,101737.25
2022-10-17T19:27:06.867Z,101752.72
2022-10-17T19:29:36.338Z,101752.38
2022-10-17T19:32:12.104Z,101758.53
2022-10-17T19:34:45.321Z,101777.38
2022-10-17T19:37:14.733Z,101778.31
2022-10-17T19:39:46.677Z,101772.84
2022-10-17T19:42:16.063Z,101783.94
2022-10-17T19:44:45.450Z,101787.44
2022-10-17T19:47:14.836Z,101795.06
2022-10-17T19:49:49.032Z,101801.00
2022-10-17T19:52:19.348Z,101798.97
2022-10-17T19:54:51.330Z,101822.75
2022-10-17T19:57:20.729Z,101812.34
2022-10-17T19:59:51.337Z,101833.66
2022-10-17T20:02:23.057Z,101843.16
2022-10-17T20:04:54.774Z,101859.34
2022-10-17T20:07:35.969Z,101857.50
2022-10-17T20:10:08.889Z,101867.66
2022-10-17T20:12:38.310Z,101879.47
2022-10-17T20:15:08.741Z,101883.72
2022-10-17T20:17:38.142Z,101899.16
2022-10-17T20:20:09.078Z,101895.59
2022-10-17T20:22:38.517Z,101891.19
2022-10-17T20:25:11.097Z,101889.38
2022-10-17T20:27:40.590Z,101898.13
2022-10-17T20:30:10.915Z,101903.22
2022-10-17T20:32:40.678Z,101903.94
2022-10-17T20:35:11.146Z,101913.34
2022-10-17T20:37:42.731Z,101909.94
2022-10-17T20:40:35.092Z,101921.34
2022-10-17T20:43:04.904Z,101920.31
2022-10-17T20:45:50.325Z,101929.94
2022-10-17T20:48:21.217Z,101932.31
2022-10-17T20:50:50.910Z,101946.81
2022-10-17T20:53:37.490Z,101948.00
2022-10-17T20:56:11.759Z,101942.66
2022-10-17T20:58:41.152Z,101948.56
2022-10-17T21:01:11.570Z,101954.63
2022-10-17T21:03:45.461Z,101953.91
2022-10-17T21:06:16.415Z,101951.22
2022-10-17T21:08:46.148Z,101958.22
2022-10-17T21:11:19.589Z,101973.03
2022-10-17T21:13:49.891Z,101971.31
2022-10-17T21:16:20.993Z,101953.81
2022-10-17T21:18:50.958Z,101961.59
2022-10-17T21:21:21.792Z,101964.13
2022-10-17T21:23:52.535Z,101952.03
2022-10-17T21:26:24.519Z,101952.84
2022-10-17T21:28:53.927Z,101955.34
2022-10-17T21:31:24.606Z,101949.31
2022-10-17T21:33:55.757Z,101964.84
2022-10-17T21:36:25.723Z,101955.13
2022-10-17T21:38:56.834Z,101944.78
2022-10-17T21:41:31.375Z,101942.19
2022-10-17T21:44:02.444Z,101940.50
2022-10-17T21:46:32.413Z,101938.78
2022-10-17T21:49:02.687Z,101937.00
2022-10-17T21:51:32.062Z,101949.22
2022-10-17T21:54:04.425Z,101959.50
2022-10-17T21:56:37.672Z,101955.94
2022-10-17T21:59:07.633Z,101944.69
2022-10-17T22:01:39.159Z,101954.19
2022-10-17T22:04:10.769Z,101956.75
2022-10-17T22:06:42.843Z,101950.53
2022-10-17T22:09:15.592Z,101951.50
2022-10-17T22:11:48.806Z,101955.78
2022-10-17T22:14:19.669Z,101959.34
2022-10-17T22:16:49.878Z,101965.34
2022-10-17T22:19:20.871Z,101967.13
2022-10-17T22:21:50.429Z,101972.31
2022-10-17T22:24:23.435Z,101967.94
2022-10-17T22:26:55.638Z,101973.91
2022-10-17T22:29:25.098Z,101985.25
2022-10-17T22:31:54.494Z,101989.75
2022-10-17T22:34:23.913Z,101985.41
2022-10-17T22:36:53.306Z,101979.34
2022-10-17T22:39:22.740Z,101980.22
2022-10-17T22:41:54.715Z,101982.00
2022-10-17T22:44:24.103Z,101951.72
2022-10-17T22:46:53.481Z,101980.38
2022-10-17T22:49:22.864Z,101978.63
2022-10-17T22:51:52.213Z,101989.13
2022-10-17T22:54:21.580Z,101997.69
2022-10-17T22:56:50.963Z,101994.31
2022-10-17T22:59:23.046Z,101993.44
2022-10-17T23:01:52.437Z,102010.00
2022-10-17T23:04:21.847Z,102005.78
2022-10-17T23:06:51.222Z,101986.69
2022-10-17T23:09:20.647Z,101999.56
2022-10-17T23:11:50.097Z,101997.69
2022-10-17T23:14:19.568Z,102001.97
2022-10-17T23:16:51.561Z,101999.25
2022-10-17T23:19:21.006Z,102000.94
2022-10-17T23:21:50.390Z,101997.28
2022-10-17T23:24:20.006Z,101999.06
2022-10-17T23:26:49.365Z,102003.19
2022-10-17T23:29:18.846Z,102009.19
2022-10-17T23:31:50.858Z,102015.28
2022-10-17T23:34:20.302Z,102023.88
2022-10-17T23:36:49.843Z,102001.34
2022-10-17T23:39:19.262Z,102003.94
2022-10-17T23:41:48.849Z,102015.19
2022-10-17T23:44:19.241Z,102014.38
2022-10-17T23:46:51.208Z,102015.19
2022-10-17T23:49:20.638Z,102010.72
2022-10-17T23:51:50.035Z,102005.47
2022-10-17T23:54:19.638Z,102015.69
2022-10-17T23:56:49.013Z,102012.09
2022-10-17T23:59:18.472Z,102015.50
